sensor_id;sensor_type;location;lat;lon;timestamp;temperature;humidity
71837;DHT22;59686;51.716;7.016;2024-02-23T00:02:17;10.50;97.70
71837;DHT22;59686;51.716;7.016;2024-02-23T00:04:43;10.60;97.90
71837;DHT22;59686;51.716;7.016;2024-02-23T00:07:10;10.60;98.00
71837;DHT22;59686;51.716;7.016;2024-02-23T00:09:36;10.60;97.90
71837;DHT22;59686;51.716;7.016;2024-02-23T00:12:02;10.50;97.70
71837;DHT22;59686;51.716;7.016;2024-02-23T00:14:29;10.50;97.90
71837;DHT22;59686;51.716;7.016;2024-02-23T00:16:56;10.30;97.70
71837;DHT22;59686;51.716;7.016;2024-02-23T00:19:23;10.40;97.70
71837;DHT22;59686;51.716;7.016;2024-02-23T00:21:49;10.60;97.90
71837;DHT22;59686;51.716;7.016;2024-02-23T00:24:19;10.60;98.00
71837;DHT22;59686;51.716;7.016;2024-02-23T00:26:46;10.60;97.80
71837;DHT22;59686;51.716;7.016;2024-02-23T00:29:12;10.50;97.70
71837;DHT22;59686;51.716;7.016;2024-02-23T00:31:38;10.40;97.60
71837;DHT22;59686;51.716;7.016;2024-02-23T00:34:06;10.40;97.50
71837;DHT22;59686;51.716;7.016;2024-02-23T00:36:38;10.40;97.70
71837;DHT22;59686;51.716;7.016;2024-02-23T00:39:04;10.40;97.70
71837;DHT22;59686;51.716;7.016;2024-02-23T00:41:29;10.50;98.20
71837;DHT22;59686;51.716;7.016;2024-02-23T00:43:55;10.50;98.10
71837;DHT22;59686;51.716;7.016;2024-02-23T00:46:21;10.50;98.00
71837;DHT22;59686;51.716;7.016;2024-02-23T00:48:46;10.60;98.20
71837;DHT22;59686;51.716;7.016;2024-02-23T00:51:13;10.60;98.30
71837;DHT22;59686;51.716;7.016;2024-02-23T00:53:39;10.60;98.10
71837;DHT22;59686;51.716;7.016;2024-02-23T00:56:05;10.70;98.40
71837;DHT22;59686;51.716;7.016;2024-02-23T00:58:31;10.60;98.50
71837;DHT22;59686;51.716;7.016;2024-02-23T01:00:56;10.50;98.40
71837;DHT22;59686;51.716;7.016;2024-02-23T01:03:22;10.60;98.20
71837;DHT22;59686;51.716;7.016;2024-02-23T01:05:48;10.60;98.20
71837;DHT22;59686;51.716;7.016;2024-02-23T01:08:14;10.60;98.30
71837;DHT22;59686;51.716;7.016;2024-02-23T01:10:39;10.60;98.10
71837;DHT22;59686;51.716;7.016;2024-02-23T01:13:05;10.50;98.30
71837;DHT22;59686;51.716;7.016;2024-02-23T01:15:31;10.60;98.40
71837;DHT22;59686;51.716;7.016;2024-02-23T01:17:56;10.50;98.20
71837;DHT22;59686;51.716;7.016;2024-02-23T01:20:22;10.50;98.30
71837;DHT22;59686;51.716;7.016;2024-02-23T01:22:48;10.50;98.40
71837;DHT22;59686;51.716;7.016;2024-02-23T01:25:14;10.60;98.60
71837;DHT22;59686;51.716;7.016;2024-02-23T01:27:41;10.50;98.30
71837;DHT22;59686;51.716;7.016;2024-02-23T01:30:07;10.50;98.20
71837;DHT22;59686;51.716;7.016;2024-02-23T01:32:33;10.50;98.40
71837;DHT22;59686;51.716;7.016;2024-02-23T01:34:59;10.50;98.40
71837;DHT22;59686;51.716;7.016;2024-02-23T01:37:24;10.50;98.60
71837;DHT22;59686;51.716;7.016;2024-02-23T01:39:50;10.50;98.60
71837;DHT22;59686;51.716;7.016;2024-02-23T01:42:16;10.50;98.50
71837;DHT22;59686;51.716;7.016;2024-02-23T01:44:42;10.50;98.60
71837;DHT22;59686;51.716;7.016;2024-02-23T01:47:08;10.60;98.60
71837;DHT22;59686;51.716;7.016;2024-02-23T01:49:34;10.50;98.20
71837;DHT22;59686;51.716;7.016;2024-02-23T01:52:02;10.60;98.40
71837;DHT22;59686;51.716;7.016;2024-02-23T01:54:29;10.40;98.30
71837;DHT22;59686;51.716;7.016;2024-02-23T01:56:56;10.40;98.30
71837;DHT22;59686;51.716;7.016;2024-02-23T01:59:23;10.40;98.30
71837;DHT22;59686;51.716;7.016;2024-02-23T02:01:48;10.40;98.20
71837;DHT22;59686;51.716;7.016;2024-02-23T02:04:14;10.40;98.30
71837;DHT22;59686;51.716;7.016;2024-02-23T02:06:40;10.40;98.30
71837;DHT22;59686;51.716;7.016;2024-02-23T02:09:06;10.50;98.20
71837;DHT22;59686;51.716;7.016;2024-02-23T02:11:32;10.40;98.40
71837;DHT22;59686;51.716;7.016;2024-02-23T02:13:57;10.40;98.10
71837;DHT22;59686;51.716;7.016;2024-02-23T02:16:23;10.40;98.30
71837;DHT22;59686;51.716;7.016;2024-02-23T02:18:49;10.40;98.20
71837;DHT22;59686;51.716;7.016;2024-02-23T02:21:14;10.40;98.20
71837;DHT22;59686;51.716;7.016;2024-02-23T02:23:40;10.40;98.30
71837;DHT22;59686;51.716;7.016;2024-02-23T02:26:06;10.40;98.40
71837;DHT22;59686;51.716;7.016;2024-02-23T02:28:31;10.40;98.10
71837;DHT22;59686;51.716;7.016;2024-02-23T02:30:57;10.30;98.30
71837;DHT22;59686;51.716;7.016;2024-02-23T02:33:23;10.40;98.00
71837;DHT22;59686;51.716;7.016;2024-02-23T02:35:50;10.30;97.80
71837;DHT22;59686;51.716;7.016;2024-02-23T02:38:16;10.30;97.90
71837;DHT22;59686;51.716;7.016;2024-02-23T02:40:42;10.30;97.70
71837;DHT22;59686;51.716;7.016;2024-02-23T02:43:08;10.30;98.00
71837;DHT22;59686;51.716;7.016;2024-02-23T02:45:33;10.40;98.20
71837;DHT22;59686;51.716;7.016;2024-02-23T02:48:03;10.30;97.80
71837;DHT22;59686;51.716;7.016;2024-02-23T02:50:29;10.30;97.80
71837;DHT22;59686;51.716;7.016;2024-02-23T02:52:54;10.30;97.80
71837;DHT22;59686;51.716;7.016;2024-02-23T02:55:20;10.20;97.60
71837;DHT22;59686;51.716;7.016;2024-02-23T02:57:46;10.20;97.60
71837;DHT22;59686;51.716;7.016;2024-02-23T03:00:12;10.20;97.80
71837;DHT22;59686;51.716;7.016;2024-02-23T03:02:38;10.20;97.20
71837;DHT22;59686;51.716;7.016;2024-02-23T03:05:04;10.20;97.50
71837;DHT22;59686;51.716;7.016;2024-02-23T03:07:29;10.20;97.40
71837;DHT22;59686;51.716;7.016;2024-02-23T03:09:55;10.20;97.40
71837;DHT22;59686;51.716;7.016;2024-02-23T03:12:21;10.10;97.20
71837;DHT22;59686;51.716;7.016;2024-02-23T03:14:46;10.20;97.70
71837;DHT22;59686;51.716;7.016;2024-02-23T03:17:12;10.20;97.60
71837;DHT22;59686;51.716;7.016;2024-02-23T03:19:38;10.20;97.60
71837;DHT22;59686;51.716;7.016;2024-02-23T03:22:04;10.20;97.80
71837;DHT22;59686;51.716;7.016;2024-02-23T03:24:30;10.30;97.80
71837;DHT22;59686;51.716;7.016;2024-02-23T03:26:56;10.20;97.80
71837;DHT22;59686;51.716;7.016;2024-02-23T03:29:22;10.20;97.80
71837;DHT22;59686;51.716;7.016;2024-02-23T03:31:55;10.20;97.60
71837;DHT22;59686;51.716;7.016;2024-02-23T03:34:21;10.10;97.60
71837;DHT22;59686;51.716;7.016;2024-02-23T03:36:46;10.20;97.90
71837;DHT22;59686;51.716;7.016;2024-02-23T03:39:13;10.10;97.70
71837;DHT22;59686;51.716;7.016;2024-02-23T03:41:39;10.10;97.50
71837;DHT22;59686;51.716;7.016;2024-02-23T03:44:04;10.10;97.90
71837;DHT22;59686;51.716;7.016;2024-02-23T03:46:30;10.10;97.80
71837;DHT22;59686;51.716;7.016;2024-02-23T03:48:56;10.20;97.90
71837;DHT22;59686;51.716;7.016;2024-02-23T03:51:23;10.10;97.40
71837;DHT22;59686;51.716;7.016;2024-02-23T03:53:49;10.10;97.50
71837;DHT22;59686;51.716;7.016;2024-02-23T03:56:15;10.00;97.50
71837;DHT22;59686;51.716;7.016;2024-02-23T03:58:41;10.10;97.70
71837;DHT22;59686;51.716;7.016;2024-02-23T04:01:06;10.00;97.20
71837;DHT22;59686;51.716;7.016;2024-02-23T04:03:32;10.00;97.20
71837;DHT22;59686;51.716;7.016;2024-02-23T04:05:58;10.00;97.50
71837;DHT22;59686;51.716;7.016;2024-02-23T04:08:23;10.00;97.40
71837;DHT22;59686;51.716;7.016;2024-02-23T04:10:49;10.00;97.60
71837;DHT22;59686;51.716;7.016;2024-02-23T04:13:15;10.00;97.70
71837;DHT22;59686;51.716;7.016;2024-02-23T04:15:41;10.10;97.60
71837;DHT22;59686;51.716;7.016;2024-02-23T04:18:06;10.10;97.70
71837;DHT22;59686;51.716;7.016;2024-02-23T04:20:32;10.00;97.90
71837;DHT22;59686;51.716;7.016;2024-02-23T04:22:58;10.10;97.30
71837;DHT22;59686;51.716;7.016;2024-02-23T04:25:24;10.00;97.20
71837;DHT22;59686;51.716;7.016;2024-02-23T04:27:50;10.00;97.10
71837;DHT22;59686;51.716;7.016;2024-02-23T04:30:16;10.00;97.40
71837;DHT22;59686;51.716;7.016;2024-02-23T04:32:41;10.00;97.50
71837;DHT22;59686;51.716;7.016;2024-02-23T04:35:08;10.00;97.30
71837;DHT22;59686;51.716;7.016;2024-02-23T04:37:34;10.00;97.60
71837;DHT22;59686;51.716;7.016;2024-02-23T04:40:00;10.00;97.40
71837;DHT22;59686;51.716;7.016;2024-02-23T04:42:25;10.00;97.60
71837;DHT22;59686;51.716;7.016;2024-02-23T04:44:51;10.00;97.70
71837;DHT22;59686;51.716;7.016;2024-02-23T04:47:20;10.00;97.60
71837;DHT22;59686;51.716;7.016;2024-02-23T04:49:45;9.90;97.50
71837;DHT22;59686;51.716;7.016;2024-02-23T04:52:11;9.80;97.50
71837;DHT22;59686;51.716;7.016;2024-02-23T04:54:37;10.00;97.40
71837;DHT22;59686;51.716;7.016;2024-02-23T04:57:02;9.90;97.10
71837;DHT22;59686;51.716;7.016;2024-02-23T04:59:28;9.90;97.20
71837;DHT22;59686;51.716;7.016;2024-02-23T05:01:55;10.00;97.20
71837;DHT22;59686;51.716;7.016;2024-02-23T05:04:21;9.90;97.30
71837;DHT22;59686;51.716;7.016;2024-02-23T05:06:46;9.90;97.10
71837;DHT22;59686;51.716;7.016;2024-02-23T05:09:13;9.90;97.00
71837;DHT22;59686;51.716;7.016;2024-02-23T05:11:39;9.90;97.20
71837;DHT22;59686;51.716;7.016;2024-02-23T05:14:04;9.90;97.10
71837;DHT22;59686;51.716;7.016;2024-02-23T05:16:31;9.90;96.80
71837;DHT22;59686;51.716;7.016;2024-02-23T05:18:57;9.90;97.00
71837;DHT22;59686;51.716;7.016;2024-02-23T05:21:23;9.90;97.10
71837;DHT22;59686;51.716;7.016;2024-02-23T05:23:48;9.90;97.10
71837;DHT22;59686;51.716;7.016;2024-02-23T05:26:14;9.80;97.10
71837;DHT22;59686;51.716;7.016;2024-02-23T05:28:40;9.90;96.90
71837;DHT22;59686;51.716;7.016;2024-02-23T05:31:05;9.90;97.10
71837;DHT22;59686;51.716;7.016;2024-02-23T05:33:31;9.80;96.80
71837;DHT22;59686;51.716;7.016;2024-02-23T05:35:57;9.80;96.90
71837;DHT22;59686;51.716;7.016;2024-02-23T05:38:23;9.90;97.00
71837;DHT22;59686;51.716;7.016;2024-02-23T05:40:49;9.80;96.80
71837;DHT22;59686;51.716;7.016;2024-02-23T05:43:15;9.80;96.90
71837;DHT22;59686;51.716;7.016;2024-02-23T05:45:41;9.80;96.80
71837;DHT22;59686;51.716;7.016;2024-02-23T05:48:07;9.80;96.80
71837;DHT22;59686;51.716;7.016;2024-02-23T05:50:33;9.80;96.90
71837;DHT22;59686;51.716;7.016;2024-02-23T05:52:59;9.80;96.90
71837;DHT22;59686;51.716;7.016;2024-02-23T05:55:25;9.60;96.70
71837;DHT22;59686;51.716;7.016;2024-02-23T05:57:51;9.80;96.70
71837;DHT22;59686;51.716;7.016;2024-02-23T06:00:17;9.70;96.50
71837;DHT22;59686;51.716;7.016;2024-02-23T06:02:47;9.70;96.60
71837;DHT22;59686;51.716;7.016;2024-02-23T06:05:13;9.80;96.70
71837;DHT22;59686;51.716;7.016;2024-02-23T06:07:39;9.70;96.60
71837;DHT22;59686;51.716;7.016;2024-02-23T06:10:06;9.80;96.50
71837;DHT22;59686;51.716;7.016;2024-02-23T06:12:31;9.70;96.60
71837;DHT22;59686;51.716;7.016;2024-02-23T06:14:57;9.80;96.70
71837;DHT22;59686;51.716;7.016;2024-02-23T06:17:24;9.70;96.60
71837;DHT22;59686;51.716;7.016;2024-02-23T06:19:50;9.70;96.60
71837;DHT22;59686;51.716;7.016;2024-02-23T06:22:18;9.70;96.60
71837;DHT22;59686;51.716;7.016;2024-02-23T06:24:47;9.70;96.70
71837;DHT22;59686;51.716;7.016;2024-02-23T06:27:13;9.70;96.60
71837;DHT22;59686;51.716;7.016;2024-02-23T06:29:38;9.60;96.70
71837;DHT22;59686;51.716;7.016;2024-02-23T06:32:05;9.70;96.80
71837;DHT22;59686;51.716;7.016;2024-02-23T06:34:31;9.80;96.80
71837;DHT22;59686;51.716;7.016;2024-02-23T06:36:57;9.70;96.90
71837;DHT22;59686;51.716;7.016;2024-02-23T06:39:23;9.80;97.00
71837;DHT22;59686;51.716;7.016;2024-02-23T06:41:48;9.80;96.80
71837;DHT22;59686;51.716;7.016;2024-02-23T06:44:14;9.60;96.80
71837;DHT22;59686;51.716;7.016;2024-02-23T06:46:40;9.70;96.90
71837;DHT22;59686;51.716;7.016;2024-02-23T06:49:07;9.70;96.80
71837;DHT22;59686;51.716;7.016;2024-02-23T06:51:32;9.70;96.80
71837;DHT22;59686;51.716;7.016;2024-02-23T06:53:58;9.60;96.90
71837;DHT22;59686;51.716;7.016;2024-02-23T06:56:24;9.70;96.80
71837;DHT22;59686;51.716;7.016;2024-02-23T06:58:49;9.60;96.90
71837;DHT22;59686;51.716;7.016;2024-02-23T07:01:15;9.70;97.00
71837;DHT22;59686;51.716;7.016;2024-02-23T07:03:41;9.70;96.80
71837;DHT22;59686;51.716;7.016;2024-02-23T07:06:08;9.70;96.90
71837;DHT22;59686;51.716;7.016;2024-02-23T07:08:37;9.60;97.00
71837;DHT22;59686;51.716;7.016;2024-02-23T07:11:03;9.60;96.70
71837;DHT22;59686;51.716;7.016;2024-02-23T07:13:29;9.60;96.90
71837;DHT22;59686;51.716;7.016;2024-02-23T07:15:55;9.70;96.80
71837;DHT22;59686;51.716;7.016;2024-02-23T07:18:21;9.60;96.90
71837;DHT22;59686;51.716;7.016;2024-02-23T07:20:48;9.60;96.90
71837;DHT22;59686;51.716;7.016;2024-02-23T07:23:14;9.60;96.70
71837;DHT22;59686;51.716;7.016;2024-02-23T07:25:41;9.70;96.70
71837;DHT22;59686;51.716;7.016;2024-02-23T07:28:07;9.50;96.70
71837;DHT22;59686;51.716;7.016;2024-02-23T07:30:33;9.60;96.80
71837;DHT22;59686;51.716;7.016;2024-02-23T07:33:00;9.60;96.60
71837;DHT22;59686;51.716;7.016;2024-02-23T07:35:26;9.50;96.50
71837;DHT22;59686;51.716;7.016;2024-02-23T07:37:52;9.50;96.50
71837;DHT22;59686;51.716;7.016;2024-02-23T07:40:18;9.60;96.70
71837;DHT22;59686;51.716;7.016;2024-02-23T07:42:43;9.60;96.70
71837;DHT22;59686;51.716;7.016;2024-02-23T07:45:09;9.60;96.70
71837;DHT22;59686;51.716;7.016;2024-02-23T07:47:36;9.60;96.60
71837;DHT22;59686;51.716;7.016;2024-02-23T07:50:02;9.60;96.70
71837;DHT22;59686;51.716;7.016;2024-02-23T07:52:28;9.60;96.80
71837;DHT22;59686;51.716;7.016;2024-02-23T07:54:54;9.60;97.00
71837;DHT22;59686;51.716;7.016;2024-02-23T07:57:20;9.60;96.70
71837;DHT22;59686;51.716;7.016;2024-02-23T07:59:46;9.50;96.80
71837;DHT22;59686;51.716;7.016;2024-02-23T08:02:12;9.60;97.00
71837;DHT22;59686;51.716;7.016;2024-02-23T08:04:37;9.60;96.80
71837;DHT22;59686;51.716;7.016;2024-02-23T08:07:04;9.60;96.80
71837;DHT22;59686;51.716;7.016;2024-02-23T08:09:30;9.60;96.80
71837;DHT22;59686;51.716;7.016;2024-02-23T08:11:56;9.60;96.60
71837;DHT22;59686;51.716;7.016;2024-02-23T08:14:21;9.50;96.60
71837;DHT22;59686;51.716;7.016;2024-02-23T08:16:47;9.50;96.40
71837;DHT22;59686;51.716;7.016;2024-02-23T08:19:13;9.50;96.60
71837;DHT22;59686;51.716;7.016;2024-02-23T08:21:38;9.50;96.40
71837;DHT22;59686;51.716;7.016;2024-02-23T08:24:05;9.50;96.40
71837;DHT22;59686;51.716;7.016;2024-02-23T08:26:31;9.50;96.60
71837;DHT22;59686;51.716;7.016;2024-02-23T08:28:56;9.50;96.60
71837;DHT22;59686;51.716;7.016;2024-02-23T08:31:22;9.50;96.40
71837;DHT22;59686;51.716;7.016;2024-02-23T08:33:48;9.50;96.50
71837;DHT22;59686;51.716;7.016;2024-02-23T08:36:13;9.60;96.50
71837;DHT22;59686;51.716;7.016;2024-02-23T08:38:39;9.50;96.40
71837;DHT22;59686;51.716;7.016;2024-02-23T08:41:05;9.50;96.40
71837;DHT22;59686;51.716;7.016;2024-02-23T08:43:30;9.50;96.30
71837;DHT22;59686;51.716;7.016;2024-02-23T08:45:56;9.60;96.40
71837;DHT22;59686;51.716;7.016;2024-02-23T08:48:22;9.50;96.20
71837;DHT22;59686;51.716;7.016;2024-02-23T08:50:47;9.50;96.30
71837;DHT22;59686;51.716;7.016;2024-02-23T08:53:13;9.60;96.40
71837;DHT22;59686;51.716;7.016;2024-02-23T08:55:39;9.50;96.40
71837;DHT22;59686;51.716;7.016;2024-02-23T08:58:05;9.60;96.60
71837;DHT22;59686;51.716;7.016;2024-02-23T09:00:32;9.60;96.50
71837;DHT22;59686;51.716;7.016;2024-02-23T09:02:58;9.60;96.30
71837;DHT22;59686;51.716;7.016;2024-02-23T09:05:23;9.60;96.20
71837;DHT22;59686;51.716;7.016;2024-02-23T09:07:49;9.50;96.10
71837;DHT22;59686;51.716;7.016;2024-02-23T09:10:14;9.50;95.90
71837;DHT22;59686;51.716;7.016;2024-02-23T09:12:40;9.50;96.00
71837;DHT22;59686;51.716;7.016;2024-02-23T09:15:06;9.50;95.90
71837;DHT22;59686;51.716;7.016;2024-02-23T09:17:33;9.50;95.90
71837;DHT22;59686;51.716;7.016;2024-02-23T09:19:58;9.60;95.90
71837;DHT22;59686;51.716;7.016;2024-02-23T09:22:24;9.50;96.10
71837;DHT22;59686;51.716;7.016;2024-02-23T09:24:50;9.50;96.10
71837;DHT22;59686;51.716;7.016;2024-02-23T09:27:16;9.50;95.90
71837;DHT22;59686;51.716;7.016;2024-02-23T09:29:41;9.50;95.90
71837;DHT22;59686;51.716;7.016;2024-02-23T09:32:08;9.50;96.00
71837;DHT22;59686;51.716;7.016;2024-02-23T09:34:33;9.40;96.00
71837;DHT22;59686;51.716;7.016;2024-02-23T09:36:59;9.40;95.90
71837;DHT22;59686;51.716;7.016;2024-02-23T09:39:25;9.50;96.00
71837;DHT22;59686;51.716;7.016;2024-02-23T09:41:54;9.50;95.90
71837;DHT22;59686;51.716;7.016;2024-02-23T09:44:20;9.50;96.10
71837;DHT22;59686;51.716;7.016;2024-02-23T09:46:49;9.50;96.20
71837;DHT22;59686;51.716;7.016;2024-02-23T09:49:15;9.50;96.10
71837;DHT22;59686;51.716;7.016;2024-02-23T09:51:43;9.50;96.10
71837;DHT22;59686;51.716;7.016;2024-02-23T09:54:09;9.50;95.90
71837;DHT22;59686;51.716;7.016;2024-02-23T09:56:35;9.50;95.90
71837;DHT22;59686;51.716;7.016;2024-02-23T09:59:03;9.50;95.90
71837;DHT22;59686;51.716;7.016;2024-02-23T10:01:31;9.50;96.00
71837;DHT22;59686;51.716;7.016;2024-02-23T10:03:59;9.50;96.10
71837;DHT22;59686;51.716;7.016;2024-02-23T10:06:25;9.50;96.20
71837;DHT22;59686;51.716;7.016;2024-02-23T10:08:51;9.50;95.90
71837;DHT22;59686;51.716;7.016;2024-02-23T10:11:21;9.50;95.80
71837;DHT22;59686;51.716;7.016;2024-02-23T10:13:48;9.50;95.80
71837;DHT22;59686;51.716;7.016;2024-02-23T10:16:18;9.50;96.00
71837;DHT22;59686;51.716;7.016;2024-02-23T10:18:46;9.50;95.60
71837;DHT22;59686;51.716;7.016;2024-02-23T10:21:12;9.40;95.70
71837;DHT22;59686;51.716;7.016;2024-02-23T10:23:38;9.50;95.80
71837;DHT22;59686;51.716;7.016;2024-02-23T10:26:05;9.50;95.60
71837;DHT22;59686;51.716;7.016;2024-02-23T10:28:31;9.50;95.90
71837;DHT22;59686;51.716;7.016;2024-02-23T10:30:57;9.50;95.50
71837;DHT22;59686;51.716;7.016;2024-02-23T10:33:23;9.50;95.50
71837;DHT22;59686;51.716;7.016;2024-02-23T10:35:55;9.50;95.70
71837;DHT22;59686;51.716;7.016;2024-02-23T10:38:22;9.50;95.60
71837;DHT22;59686;51.716;7.016;2024-02-23T10:40:49;9.50;95.50
71837;DHT22;59686;51.716;7.016;2024-02-23T10:43:19;9.50;95.60
71837;DHT22;59686;51.716;7.016;2024-02-23T10:45:46;9.40;95.60
71837;DHT22;59686;51.716;7.016;2024-02-23T10:48:12;9.50;95.70
71837;DHT22;59686;51.716;7.016;2024-02-23T10:50:41;9.50;95.70
71837;DHT22;59686;51.716;7.016;2024-02-23T10:53:10;9.50;95.60
71837;DHT22;59686;51.716;7.016;2024-02-23T10:55:37;9.50;95.70
71837;DHT22;59686;51.716;7.016;2024-02-23T10:58:06;9.50;95.70
71837;DHT22;59686;51.716;7.016;2024-02-23T11:00:34;9.50;95.80
71837;DHT22;59686;51.716;7.016;2024-02-23T11:03:00;9.50;95.90
71837;DHT22;59686;51.716;7.016;2024-02-23T11:05:27;9.40;95.80
71837;DHT22;59686;51.716;7.016;2024-02-23T11:07:56;9.50;95.70
71837;DHT22;59686;51.716;7.016;2024-02-23T11:10:22;9.50;95.60
71837;DHT22;59686;51.716;7.016;2024-02-23T11:13:07;9.50;95.60
71837;DHT22;59686;51.716;7.016;2024-02-23T11:15:33;9.50;95.50
71837;DHT22;59686;51.716;7.016;2024-02-23T11:18:21;9.50;95.70
71837;DHT22;59686;51.716;7.016;2024-02-23T11:20:54;9.40;95.60
71837;DHT22;59686;51.716;7.016;2024-02-23T11:23:20;9.40;95.60
71837;DHT22;59686;51.716;7.016;2024-02-23T11:26:18;9.50;95.60
71837;DHT22;59686;51.716;7.016;2024-02-23T11:28:51;9.40;95.40
71837;DHT22;59686;51.716;7.016;2024-02-23T11:31:22;9.50;95.40
71837;DHT22;59686;51.716;7.016;2024-02-23T11:33:53;9.50;95.50
71837;DHT22;59686;51.716;7.016;2024-02-23T11:36:50;9.50;95.40
71837;DHT22;59686;51.716;7.016;2024-02-23T11:39:16;9.60;95.40
71837;DHT22;59686;51.716;7.016;2024-02-23T11:41:43;9.50;95.40
71837;DHT22;59686;51.716;7.016;2024-02-23T11:44:09;9.50;95.60
71837;DHT22;59686;51.716;7.016;2024-02-23T11:46:35;9.50;95.60
71837;DHT22;59686;51.716;7.016;2024-02-23T11:49:01;9.50;95.60
71837;DHT22;59686;51.716;7.016;2024-02-23T11:51:27;9.50;95.50
71837;DHT22;59686;51.716;7.016;2024-02-23T11:53:55;9.50;95.30
71837;DHT22;59686;51.716;7.016;2024-02-23T11:56:23;9.50;95.60
71837;DHT22;59686;51.716;7.016;2024-02-23T11:58:49;9.40;95.70
71837;DHT22;59686;51.716;7.016;2024-02-23T12:01:15;9.60;95.70
71837;DHT22;59686;51.716;7.016;2024-02-23T12:03:41;9.60;95.60
71837;DHT22;59686;51.716;7.016;2024-02-23T12:06:10;9.50;95.70
71837;DHT22;59686;51.716;7.016;2024-02-23T12:08:36;9.40;95.90
71837;DHT22;59686;51.716;7.016;2024-02-23T12:11:09;9.50;95.70
71837;DHT22;59686;51.716;7.016;2024-02-23T12:13:35;9.40;95.90
71837;DHT22;59686;51.716;7.016;2024-02-23T12:16:01;9.60;96.00
71837;DHT22;59686;51.716;7.016;2024-02-23T12:18:28;9.50;95.90
71837;DHT22;59686;51.716;7.016;2024-02-23T12:21:00;9.50;95.80
71837;DHT22;59686;51.716;7.016;2024-02-23T12:23:37;9.50;96.10
71837;DHT22;59686;51.716;7.016;2024-02-23T12:26:04;9.60;96.30
71837;DHT22;59686;51.716;7.016;2024-02-23T12:28:29;9.50;96.20
71837;DHT22;59686;51.716;7.016;2024-02-23T12:31:03;9.40;96.00
71837;DHT22;59686;51.716;7.016;2024-02-23T12:33:31;9.50;96.40
71837;DHT22;59686;51.716;7.016;2024-02-23T12:35:58;9.50;96.30
71837;DHT22;59686;51.716;7.016;2024-02-23T12:38:25;9.50;96.50
71837;DHT22;59686;51.716;7.016;2024-02-23T12:40:51;9.40;96.60
71837;DHT22;59686;51.716;7.016;2024-02-23T12:43:17;9.60;96.60
71837;DHT22;59686;51.716;7.016;2024-02-23T12:45:43;9.60;96.90
71837;DHT22;59686;51.716;7.016;2024-02-23T12:48:11;9.60;96.70
71837;DHT22;59686;51.716;7.016;2024-02-23T12:50:36;9.50;96.60
71837;DHT22;59686;51.716;7.016;2024-02-23T12:53:03;9.50;96.60
71837;DHT22;59686;51.716;7.016;2024-02-23T12:55:29;9.50;96.60
71837;DHT22;59686;51.716;7.016;2024-02-23T12:57:55;9.60;96.70
71837;DHT22;59686;51.716;7.016;2024-02-23T13:00:20;9.60;96.50
71837;DHT22;59686;51.716;7.016;2024-02-23T13:02:46;9.50;96.50
71837;DHT22;59686;51.716;7.016;2024-02-23T13:05:12;9.60;96.50
71837;DHT22;59686;51.716;7.016;2024-02-23T13:07:38;9.50;96.60
71837;DHT22;59686;51.716;7.016;2024-02-23T13:10:06;9.50;96.70
71837;DHT22;59686;51.716;7.016;2024-02-23T13:12:32;9.50;96.70
71837;DHT22;59686;51.716;7.016;2024-02-23T13:14:58;9.50;97.10
71837;DHT22;59686;51.716;7.016;2024-02-23T13:17:24;9.60;97.00
71837;DHT22;59686;51.716;7.016;2024-02-23T13:19:49;9.60;97.00
71837;DHT22;59686;51.716;7.016;2024-02-23T13:22:15;9.60;97.60
71837;DHT22;59686;51.716;7.016;2024-02-23T13:24:41;9.50;97.40
71837;DHT22;59686;51.716;7.016;2024-02-23T13:27:06;9.50;97.50
71837;DHT22;59686;51.716;7.016;2024-02-23T13:29:32;9.60;97.30
71837;DHT22;59686;51.716;7.016;2024-02-23T13:31:58;9.60;97.40
71837;DHT22;59686;51.716;7.016;2024-02-23T13:34:23;9.50;97.20
71837;DHT22;59686;51.716;7.016;2024-02-23T13:36:49;9.70;97.30
71837;DHT22;59686;51.716;7.016;2024-02-23T13:39:15;9.60;97.50
71837;DHT22;59686;51.716;7.016;2024-02-23T13:41:41;9.60;97.50
71837;DHT22;59686;51.716;7.016;2024-02-23T13:44:07;9.50;97.50
71837;DHT22;59686;51.716;7.016;2024-02-23T13:46:38;9.60;97.40
71837;DHT22;59686;51.716;7.016;2024-02-23T13:49:07;9.60;97.30
71837;DHT22;59686;51.716;7.016;2024-02-23T13:51:35;9.50;97.40
71837;DHT22;59686;51.716;7.016;2024-02-23T13:54:00;9.60;97.00
71837;DHT22;59686;51.716;7.016;2024-02-23T13:56:26;9.60;97.30
71837;DHT22;59686;51.716;7.016;2024-02-23T13:58:52;9.50;97.10
71837;DHT22;59686;51.716;7.016;2024-02-23T14:01:18;9.60;97.20
71837;DHT22;59686;51.716;7.016;2024-02-23T14:03:43;9.50;97.10
71837;DHT22;59686;51.716;7.016;2024-02-23T14:06:09;9.60;97.20
71837;DHT22;59686;51.716;7.016;2024-02-23T14:08:35;9.60;97.10
71837;DHT22;59686;51.716;7.016;2024-02-23T14:11:03;9.70;97.10
71837;DHT22;59686;51.716;7.016;2024-02-23T14:13:31;9.60;96.90
71837;DHT22;59686;51.716;7.016;2024-02-23T14:15:58;9.60;97.30
71837;DHT22;59686;51.716;7.016;2024-02-23T14:18:23;9.60;97.10
71837;DHT22;59686;51.716;7.016;2024-02-23T14:20:49;9.60;97.40
71837;DHT22;59686;51.716;7.016;2024-02-23T14:23:15;9.70;97.30
71837;DHT22;59686;51.716;7.016;2024-02-23T14:25:40;9.60;97.30
71837;DHT22;59686;51.716;7.016;2024-02-23T14:28:06;9.50;97.50
71837;DHT22;59686;51.716;7.016;2024-02-23T14:30:32;9.60;97.60
71837;DHT22;59686;51.716;7.016;2024-02-23T14:32:57;9.60;97.50
71837;DHT22;59686;51.716;7.016;2024-02-23T14:35:23;9.50;97.50
71837;DHT22;59686;51.716;7.016;2024-02-23T14:37:49;9.60;97.60
71837;DHT22;59686;51.716;7.016;2024-02-23T14:40:14;9.70;97.70
71837;DHT22;59686;51.716;7.016;2024-02-23T14:42:40;9.60;97.80
71837;DHT22;59686;51.716;7.016;2024-02-23T14:45:07;9.60;97.90
71837;DHT22;59686;51.716;7.016;2024-02-23T14:47:33;9.60;98.00
71837;DHT22;59686;51.716;7.016;2024-02-23T14:49:59;9.60;98.00
71837;DHT22;59686;51.716;7.016;2024-02-23T14:52:25;9.60;97.80
71837;DHT22;59686;51.716;7.016;2024-02-23T14:54:51;9.60;97.80
71837;DHT22;59686;51.716;7.016;2024-02-23T14:57:16;9.60;97.70
71837;DHT22;59686;51.716;7.016;2024-02-23T14:59:42;9.60;97.70
71837;DHT22;59686;51.716;7.016;2024-02-23T15:02:19;9.60;98.00
71837;DHT22;59686;51.716;7.016;2024-02-23T15:04:45;9.60;98.00
71837;DHT22;59686;51.716;7.016;2024-02-23T15:07:11;9.60;98.10
71837;DHT22;59686;51.716;7.016;2024-02-23T15:09:37;9.60;98.00
71837;DHT22;59686;51.716;7.016;2024-02-23T15:12:03;9.60;97.80
71837;DHT22;59686;51.716;7.016;2024-02-23T15:14:29;9.60;98.10
71837;DHT22;59686;51.716;7.016;2024-02-23T15:16:54;9.60;98.10
71837;DHT22;59686;51.716;7.016;2024-02-23T15:19:20;9.60;98.00
71837;DHT22;59686;51.716;7.016;2024-02-23T15:21:48;9.70;98.10
71837;DHT22;59686;51.716;7.016;2024-02-23T15:24:15;9.60;98.20
71837;DHT22;59686;51.716;7.016;2024-02-23T15:26:43;9.70;97.90
71837;DHT22;59686;51.716;7.016;2024-02-23T15:29:10;9.70;98.00
71837;DHT22;59686;51.716;7.016;2024-02-23T15:31:38;9.60;98.20
71837;DHT22;59686;51.716;7.016;2024-02-23T15:34:05;9.60;97.80
71837;DHT22;59686;51.716;7.016;2024-02-23T15:36:31;9.70;98.00
71837;DHT22;59686;51.716;7.016;2024-02-23T15:38:56;9.60;98.10